sensor_id;sensor_type;location;lat;lon;timestamp;P1;durP1;ratioP1;P2;durP2;ratioP2
13580;SDS011;6861;46.170;7.222;2023-04-26T00:00:00;2.33;;;1.20;;
13580;SDS011;6861;46.170;7.222;2023-04-26T00:02:34;1.70;;;1.00;;
13580;SDS011;6861;46.170;7.222;2023-04-26T00:05:02;1.52;;;1.00;;
13580;SDS011;6861;46.170;7.222;2023-04-26T00:07:32;2.03;;;1.20;;
13580;SDS011;6861;46.170;7.222;2023-04-26T00:10:00;3.00;;;1.30;;
13580;SDS011;6861;46.170;7.222;2023-04-26T00:12:29;1.80;;;1.40;;
13580;SDS011;6861;46.170;7.222;2023-04-26T00:14:57;2.08;;;1.42;;
13580;SDS011;6861;46.170;7.222;2023-04-26T00:17:26;2.97;;;1.55;;
13580;SDS011;6861;46.170;7.222;2023-04-26T00:19:55;4.60;;;1.50;;
13580;SDS011;6861;46.170;7.222;2023-04-26T00:22:23;2.13;;;1.30;;
13580;SDS011;6861;46.170;7.222;2023-04-26T00:24:52;1.80;;;1.25;;
13580;SDS011;6861;46.170;7.222;2023-04-26T00:27:20;2.50;;;1.35;;
13580;SDS011;6861;46.170;7.222;2023-04-26T00:29:48;2.35;;;1.48;;
13580;SDS011;6861;46.170;7.222;2023-04-26T00:32:16;3.63;;;1.70;;
13580;SDS011;6861;46.170;7.222;2023-04-26T00:34:46;1.65;;;1.50;;
13580;SDS011;6861;46.170;7.222;2023-04-26T00:37:14;2.13;;;1.58;;
13580;SDS011;6861;46.170;7.222;2023-04-26T00:39:43;2.90;;;1.45;;
13580;SDS011;6861;46.170;7.222;2023-04-26T00:42:12;2.70;;;1.50;;
13580;SDS011;6861;46.170;7.222;2023-04-26T00:44:40;1.70;;;1.40;;
13580;SDS011;6861;46.170;7.222;2023-04-26T00:47:08;1.55;;;1.38;;
13580;SDS011;6861;46.170;7.222;2023-04-26T00:49:36;1.65;;;1.33;;
13580;SDS011;6861;46.170;7.222;2023-04-26T00:52:06;2.15;;;1.45;;
13580;SDS011;6861;46.170;7.222;2023-04-26T00:54:34;1.98;;;1.40;;
13580;SDS011;6861;46.170;7.222;2023-04-26T00:57:03;1.35;;;1.25;;
13580;SDS011;6861;46.170;7.222;2023-04-26T00:59:32;2.35;;;1.42;;
13580;SDS011;6861;46.170;7.222;2023-04-26T01:02:01;1.98;;;1.38;;
13580;SDS011;6861;46.170;7.222;2023-04-26T01:04:30;2.10;;;1.40;;
13580;SDS011;6861;46.170;7.222;2023-04-26T01:06:59;4.15;;;1.55;;
13580;SDS011;6861;46.170;7.222;2023-04-26T01:09:30;1.83;;;1.50;;
13580;SDS011;6861;46.170;7.222;2023-04-26T01:11:59;2.75;;;1.20;;
13580;SDS011;6861;46.170;7.222;2023-04-26T01:14:27;1.48;;;1.38;;
13580;SDS011;6861;46.170;7.222;2023-04-26T01:16:56;2.28;;;1.38;;
13580;SDS011;6861;46.170;7.222;2023-04-26T01:19:25;2.53;;;1.20;;
13580;SDS011;6861;46.170;7.222;2023-04-26T01:21:53;1.83;;;1.23;;
13580;SDS011;6861;46.170;7.222;2023-04-26T01:24:23;2.15;;;1.35;;
13580;SDS011;6861;46.170;7.222;2023-04-26T01:26:51;1.88;;;1.52;;
13580;SDS011;6861;46.170;7.222;2023-04-26T01:29:20;1.63;;;1.38;;
13580;SDS011;6861;46.170;7.222;2023-04-26T01:31:49;2.13;;;1.45;;
13580;SDS011;6861;46.170;7.222;2023-04-26T01:34:17;2.05;;;1.40;;
13580;SDS011;6861;46.170;7.222;2023-04-26T01:36:46;1.83;;;1.20;;
13580;SDS011;6861;46.170;7.222;2023-04-26T01:39:14;1.52;;;1.25;;
13580;SDS011;6861;46.170;7.222;2023-04-26T01:41:44;3.00;;;1.58;;
13580;SDS011;6861;46.170;7.222;2023-04-26T01:44:12;1.95;;;1.25;;
13580;SDS011;6861;46.170;7.222;2023-04-26T01:46:40;2.40;;;1.50;;
13580;SDS011;6861;46.170;7.222;2023-04-26T01:49:08;3.53;;;1.40;;
13580;SDS011;6861;46.170;7.222;2023-04-26T01:51:36;1.65;;;1.38;;
13580;SDS011;6861;46.170;7.222;2023-04-26T01:54:05;2.78;;;1.50;;
13580;SDS011;6861;46.170;7.222;2023-04-26T01:56:33;3.20;;;1.60;;
13580;SDS011;6861;46.170;7.222;2023-04-26T01:59:03;2.88;;;1.70;;
13580;SDS011;6861;46.170;7.222;2023-04-26T02:01:31;2.08;;;1.67;;
13580;SDS011;6861;46.170;7.222;2023-04-26T02:03:59;2.28;;;1.48;;
13580;SDS011;6861;46.170;7.222;2023-04-26T02:06:28;3.55;;;1.70;;
13580;SDS011;6861;46.170;7.222;2023-04-26T02:08:57;2.22;;;1.50;;
13580;SDS011;6861;46.170;7.222;2023-04-26T02:11:25;2.50;;;1.50;;
13580;SDS011;6861;46.170;7.222;2023-04-26T02:13:53;3.92;;;2.10;;
13580;SDS011;6861;46.170;7.222;2023-04-26T02:16:23;3.22;;;1.80;;
13580;SDS011;6861;46.170;7.222;2023-04-26T02:18:52;1.95;;;1.40;;
13580;SDS011;6861;46.170;7.222;2023-04-26T02:21:21;3.53;;;1.70;;
13580;SDS011;6861;46.170;7.222;2023-04-26T02:23:49;2.70;;;1.63;;
13580;SDS011;6861;46.170;7.222;2023-04-26T02:26:17;3.90;;;1.42;;
13580;SDS011;6861;46.170;7.222;2023-04-26T02:28:45;4.25;;;1.80;;
13580;SDS011;6861;46.170;7.222;2023-04-26T02:31:13;2.42;;;1.33;;
13580;SDS011;6861;46.170;7.222;2023-04-26T02:33:43;2.15;;;1.73;;
13580;SDS011;6861;46.170;7.222;2023-04-26T02:36:11;2.08;;;1.52;;
13580;SDS011;6861;46.170;7.222;2023-04-26T02:38:39;2.80;;;1.40;;
13580;SDS011;6861;46.170;7.222;2023-04-26T02:41:08;2.42;;;1.40;;
13580;SDS011;6861;46.170;7.222;2023-04-26T02:43:36;2.33;;;1.20;;
13580;SDS011;6861;46.170;7.222;2023-04-26T02:46:05;1.55;;;1.42;;
13580;SDS011;6861;46.170;7.222;2023-04-26T02:48:34;3.35;;;1.73;;
13580;SDS011;6861;46.170;7.222;2023-04-26T02:51:04;1.75;;;1.50;;
13580;SDS011;6861;46.170;7.222;2023-04-26T02:53:33;2.40;;;1.38;;
13580;SDS011;6861;46.170;7.222;2023-04-26T02:56:01;3.08;;;1.70;;
13580;SDS011;6861;46.170;7.222;2023-04-26T02:58:29;3.13;;;1.52;;
13580;SDS011;6861;46.170;7.222;2023-04-26T03:00:57;3.90;;;1.73;;
13580;SDS011;6861;46.170;7.222;2023-04-26T03:03:27;3.30;;;1.58;;
13580;SDS011;6861;46.170;7.222;2023-04-26T03:05:56;2.05;;;1.48;;
13580;SDS011;6861;46.170;7.222;2023-04-26T03:08:26;2.63;;;1.48;;
13580;SDS011;6861;46.170;7.222;2023-04-26T03:10:54;4.47;;;1.50;;
13580;SDS011;6861;46.170;7.222;2023-04-26T03:13:22;2.75;;;1.55;;
13580;SDS011;6861;46.170;7.222;2023-04-26T03:15:50;3.78;;;1.50;;
13580;SDS011;6861;46.170;7.222;2023-04-26T03:18:19;3.40;;;1.50;;
13580;SDS011;6861;46.170;7.222;2023-04-26T03:20:47;1.60;;;1.50;;
13580;SDS011;6861;46.170;7.222;2023-04-26T03:23:15;2.10;;;1.42;;
13580;SDS011;6861;46.170;7.222;2023-04-26T03:25:45;2.08;;;1.45;;
13580;SDS011;6861;46.170;7.222;2023-04-26T03:28:13;2.53;;;1.55;;
13580;SDS011;6861;46.170;7.222;2023-04-26T03:30:41;2.35;;;1.45;;
13580;SDS011;6861;46.170;7.222;2023-04-26T03:33:09;3.05;;;1.80;;
13580;SDS011;6861;46.170;7.222;2023-04-26T03:35:38;2.38;;;1.85;;
13580;SDS011;6861;46.170;7.222;2023-04-26T03:38:07;4.10;;;2.10;;
13580;SDS011;6861;46.170;7.222;2023-04-26T03:40:35;3.72;;;2.22;;
13580;SDS011;6861;46.170;7.222;2023-04-26T03:43:04;3.97;;;2.20;;
13580;SDS011;6861;46.170;7.222;2023-04-26T03:45:33;2.30;;;1.92;;
13580;SDS011;6861;46.170;7.222;2023-04-26T03:48:02;3.50;;;2.20;;
13580;SDS011;6861;46.170;7.222;2023-04-26T03:50:30;3.30;;;2.13;;
13580;SDS011;6861;46.170;7.222;2023-04-26T03:52:58;2.73;;;1.83;;
13580;SDS011;6861;46.170;7.222;2023-04-26T03:55:27;2.83;;;2.00;;
13580;SDS011;6861;46.170;7.222;2023-04-26T03:57:55;6.57;;;3.03;;
13580;SDS011;6861;46.170;7.222;2023-04-26T04:00:24;5.95;;;2.67;;
13580;SDS011;6861;46.170;7.222;2023-04-26T04:02:53;3.27;;;2.10;;
13580;SDS011;6861;46.170;7.222;2023-04-26T04:05:21;3.57;;;2.20;;
13580;SDS011;6861;46.170;7.222;2023-04-26T04:07:50;2.97;;;2.10;;
13580;SDS011;6861;46.170;7.222;2023-04-26T04:10:18;3.67;;;2.70;;
13580;SDS011;6861;46.170;7.222;2023-04-26T04:12:48;6.67;;;3.40;;
13580;SDS011;6861;46.170;7.222;2023-04-26T04:15:16;4.30;;;3.90;;
13580;SDS011;6861;46.170;7.222;2023-04-26T04:17:46;6.77;;;4.40;;
13580;SDS011;6861;46.170;7.222;2023-04-26T04:20:15;7.53;;;4.87;;
13580;SDS011;6861;46.170;7.222;2023-04-26T04:22:43;6.28;;;5.55;;
13580;SDS011;6861;46.170;7.222;2023-04-26T04:25:11;18.57;;;12.30;;
13580;SDS011;6861;46.170;7.222;2023-04-26T04:27:40;21.53;;;14.33;;
13580;SDS011;6861;46.170;7.222;2023-04-26T04:30:09;21.10;;;14.07;;
13580;SDS011;6861;46.170;7.222;2023-04-26T04:32:38;16.27;;;11.68;;
13580;SDS011;6861;46.170;7.222;2023-04-26T04:35:11;12.13;;;8.00;;
13580;SDS011;6861;46.170;7.222;2023-04-26T04:37:39;9.30;;;6.73;;
13580;SDS011;6861;46.170;7.222;2023-04-26T04:40:09;11.87;;;8.17;;
13580;SDS011;6861;46.170;7.222;2023-04-26T04:42:38;16.40;;;9.73;;
13580;SDS011;6861;46.170;7.222;2023-04-26T04:45:07;12.23;;;10.13;;
13580;SDS011;6861;46.170;7.222;2023-04-26T04:47:36;16.77;;;9.70;;
13580;SDS011;6861;46.170;7.222;2023-04-26T04:50:06;16.50;;;9.40;;
13580;SDS011;6861;46.170;7.222;2023-04-26T04:52:36;9.83;;;7.73;;
13580;SDS011;6861;46.170;7.222;2023-04-26T04:55:05;13.03;;;7.97;;
13580;SDS011;6861;46.170;7.222;2023-04-26T04:57:33;13.60;;;9.13;;
13580;SDS011;6861;46.170;7.222;2023-04-26T05:00:02;14.73;;;9.30;;
13580;SDS011;6861;46.170;7.222;2023-04-26T05:02:35;13.53;;;8.67;;
13580;SDS011;6861;46.170;7.222;2023-04-26T05:05:04;8.53;;;6.97;;
13580;SDS011;6861;46.170;7.222;2023-04-26T05:07:33;8.20;;;6.03;;
13580;SDS011;6861;46.170;7.222;2023-04-26T05:10:03;5.87;;;3.70;;
13580;SDS011;6861;46.170;7.222;2023-04-26T05:12:32;6.63;;;3.40;;
13580;SDS011;6861;46.170;7.222;2023-04-26T05:15:02;5.53;;;4.07;;
13580;SDS011;6861;46.170;7.222;2023-04-26T05:17:31;3.63;;;3.07;;
13580;SDS011;6861;46.170;7.222;2023-04-26T05:20:00;5.27;;;3.27;;
13580;SDS011;6861;46.170;7.222;2023-04-26T05:22:31;5.97;;;3.70;;
13580;SDS011;6861;46.170;7.222;2023-04-26T05:25:03;4.70;;;3.30;;
13580;SDS011;6861;46.170;7.222;2023-04-26T05:27:33;5.57;;;3.28;;
13580;SDS011;6861;46.170;7.222;2023-04-26T05:30:03;6.70;;;3.27;;
13580;SDS011;6861;46.170;7.222;2023-04-26T05:32:32;6.93;;;3.33;;
13580;SDS011;6861;46.170;7.222;2023-04-26T05:35:00;5.03;;;3.27;;
13580;SDS011;6861;46.170;7.222;2023-04-26T05:37:29;5.27;;;3.20;;
13580;SDS011;6861;46.170;7.222;2023-04-26T05:39:57;5.20;;;3.50;;
13580;SDS011;6861;46.170;7.222;2023-04-26T05:42:27;8.27;;;3.80;;
13580;SDS011;6861;46.170;7.222;2023-04-26T05:44:56;10.93;;;3.63;;
13580;SDS011;6861;46.170;7.222;2023-04-26T05:47:25;5.07;;;3.37;;
13580;SDS011;6861;46.170;7.222;2023-04-26T05:49:53;5.35;;;3.78;;
13580;SDS011;6861;46.170;7.222;2023-04-26T05:52:21;7.20;;;3.88;;
13580;SDS011;6861;46.170;7.222;2023-04-26T05:54:49;8.95;;;3.80;;
13580;SDS011;6861;46.170;7.222;2023-04-26T05:57:17;5.93;;;3.33;;
13580;SDS011;6861;46.170;7.222;2023-04-26T05:59:47;21.80;;;9.50;;
13580;SDS011;6861;46.170;7.222;2023-04-26T06:02:15;8.52;;;4.18;;
13580;SDS011;6861;46.170;7.222;2023-04-26T06:04:44;6.70;;;3.33;;
13580;SDS011;6861;46.170;7.222;2023-04-26T06:07:12;6.32;;;3.17;;
13580;SDS011;6861;46.170;7.222;2023-04-26T06:09:42;6.07;;;3.03;;
13580;SDS011;6861;46.170;7.222;2023-04-26T06:12:10;6.00;;;3.17;;
13580;SDS011;6861;46.170;7.222;2023-04-26T06:14:38;5.55;;;3.28;;
13580;SDS011;6861;46.170;7.222;2023-04-26T06:17:08;6.57;;;3.28;;
13580;SDS011;6861;46.170;7.222;2023-04-26T06:19:37;5.93;;;3.03;;
13580;SDS011;6861;46.170;7.222;2023-04-26T06:22:05;7.00;;;3.10;;
13580;SDS011;6861;46.170;7.222;2023-04-26T06:24:34;5.93;;;2.97;;
13580;SDS011;6861;46.170;7.222;2023-04-26T06:27:02;5.33;;;3.10;;
13580;SDS011;6861;46.170;7.222;2023-04-26T06:29:31;4.82;;;3.15;;
13580;SDS011;6861;46.170;7.222;2023-04-26T06:32:00;8.57;;;3.47;;
13580;SDS011;6861;46.170;7.222;2023-04-26T06:34:29;4.30;;;3.23;;
13580;SDS011;6861;46.170;7.222;2023-04-26T06:36:58;7.40;;;2.97;;
13580;SDS011;6861;46.170;7.222;2023-04-26T06:39:26;4.13;;;2.55;;
13580;SDS011;6861;46.170;7.222;2023-04-26T06:41:54;5.25;;;2.50;;
13580;SDS011;6861;46.170;7.222;2023-04-26T06:44:22;3.97;;;2.60;;
13580;SDS011;6861;46.170;7.222;2023-04-26T06:46:52;5.72;;;2.63;;
13580;SDS011;6861;46.170;7.222;2023-04-26T06:49:21;5.50;;;2.17;;
13580;SDS011;6861;46.170;7.222;2023-04-26T06:51:51;5.20;;;2.17;;
13580;SDS011;6861;46.170;7.222;2023-04-26T06:54:19;3.70;;;1.83;;
13580;SDS011;6861;46.170;7.222;2023-04-26T06:56:47;8.15;;;2.33;;
13580;SDS011;6861;46.170;7.222;2023-04-26T06:59:16;5.35;;;1.70;;
13580;SDS011;6861;46.170;7.222;2023-04-26T07:01:44;4.13;;;1.60;;
13580;SDS011;6861;46.170;7.222;2023-04-26T07:04:12;1.52;;;1.25;;
13580;SDS011;6861;46.170;7.222;2023-04-26T07:06:40;1.65;;;1.25;;
13580;SDS011;6861;46.170;7.222;2023-04-26T07:09:10;1.80;;;1.10;;
13580;SDS011;6861;46.170;7.222;2023-04-26T07:11:38;5.57;;;1.35;;
13580;SDS011;6861;46.170;7.222;2023-04-26T07:14:06;3.47;;;1.20;;
13580;SDS011;6861;46.170;7.222;2023-04-26T07:16:35;2.00;;;1.20;;
13580;SDS011;6861;46.170;7.222;2023-04-26T07:19:03;2.17;;;1.42;;
13580;SDS011;6861;46.170;7.222;2023-04-26T07:21:32;2.17;;;1.10;;
13580;SDS011;6861;46.170;7.222;2023-04-26T07:24:00;1.48;;;1.20;;
13580;SDS011;6861;46.170;7.222;2023-04-26T07:26:30;3.75;;;1.80;;
13580;SDS011;6861;46.170;7.222;2023-04-26T07:28:58;3.45;;;1.55;;
13580;SDS011;6861;46.170;7.222;2023-04-26T07:31:26;3.92;;;1.45;;
13580;SDS011;6861;46.170;7.222;2023-04-26T07:33:54;3.10;;;1.40;;
13580;SDS011;6861;46.170;7.222;2023-04-26T07:36:22;2.85;;;1.30;;
13580;SDS011;6861;46.170;7.222;2023-04-26T07:38:51;2.60;;;1.10;;
13580;SDS011;6861;46.170;7.222;2023-04-26T07:41:20;2.20;;;1.10;;
13580;SDS011;6861;46.170;7.222;2023-04-26T07:43:49;2.05;;;1.20;;
13580;SDS011;6861;46.170;7.222;2023-04-26T07:46:18;4.78;;;1.50;;
13580;SDS011;6861;46.170;7.222;2023-04-26T07:48:47;3.30;;;1.45;;
13580;SDS011;6861;46.170;7.222;2023-04-26T07:51:15;3.35;;;1.50;;
13580;SDS011;6861;46.170;7.222;2023-04-26T07:53:43;3.72;;;1.50;;
13580;SDS011;6861;46.170;7.222;2023-04-26T07:56:11;3.33;;;1.50;;
13580;SDS011;6861;46.170;7.222;2023-04-26T07:58:40;2.50;;;1.30;;
13580;SDS011;6861;46.170;7.222;2023-04-26T08:01:10;3.47;;;1.38;;
13580;SDS011;6861;46.170;7.222;2023-04-26T08:03:41;10.88;;;1.80;;
13580;SDS011;6861;46.170;7.222;2023-04-26T08:06:09;1.55;;;1.23;;
13580;SDS011;6861;46.170;7.222;2023-04-26T08:08:38;2.40;;;1.40;;
13580;SDS011;6861;46.170;7.222;2023-04-26T08:11:10;2.75;;;1.40;;
13580;SDS011;6861;46.170;7.222;2023-04-26T08:13:38;3.25;;;1.38;;
13580;SDS011;6861;46.170;7.222;2023-04-26T08:16:06;6.28;;;1.50;;
13580;SDS011;6861;46.170;7.222;2023-04-26T08:18:36;1.80;;;1.10;;
13580;SDS011;6861;46.170;7.222;2023-04-26T08:21:04;3.47;;;1.30;;
13580;SDS011;6861;46.170;7.222;2023-04-26T08:23:33;3.50;;;1.30;;
13580;SDS011;6861;46.170;7.222;2023-04-26T08:26:02;3.28;;;1.27;;
13580;SDS011;6861;46.170;7.222;2023-04-26T08:28:32;1.85;;;1.23;;
13580;SDS011;6861;46.170;7.222;2023-04-26T08:31:01;2.70;;;1.10;;
13580;SDS011;6861;46.170;7.222;2023-04-26T08:33:29;2.40;;;1.38;;
13580;SDS011;6861;46.170;7.222;2023-04-26T08:35:59;2.30;;;1.30;;
13580;SDS011;6861;46.170;7.222;2023-04-26T08:38:27;1.58;;;1.10;;
13580;SDS011;6861;46.170;7.222;2023-04-26T08:40:57;2.28;;;1.20;;
13580;SDS011;6861;46.170;7.222;2023-04-26T08:43:27;1.95;;;1.20;;
13580;SDS011;6861;46.170;7.222;2023-04-26T08:45:55;2.50;;;1.27;;
13580;SDS011;6861;46.170;7.222;2023-04-26T08:48:25;2.47;;;1.30;;
13580;SDS011;6861;46.170;7.222;2023-04-26T08:50:59;1.83;;;1.08;;
13580;SDS011;6861;46.170;7.222;2023-04-26T08:53:28;4.95;;;1.65;;
13580;SDS011;6861;46.170;7.222;2023-04-26T08:56:01;2.72;;;1.10;;
13580;SDS011;6861;46.170;7.222;2023-04-26T08:58:31;5.38;;;1.35;;
13580;SDS011;6861;46.170;7.222;2023-04-26T09:00:59;3.50;;;1.20;;
13580;SDS011;6861;46.170;7.222;2023-04-26T09:03:29;2.00;;;1.15;;
13580;SDS011;6861;46.170;7.222;2023-04-26T09:05:57;2.90;;;1.15;;
13580;SDS011;6861;46.170;7.222;2023-04-26T09:08:30;2.00;;;1.10;;
13580;SDS011;6861;46.170;7.222;2023-04-26T09:11:00;2.13;;;1.10;;
13580;SDS011;6861;46.170;7.222;2023-04-26T09:13:30;4.30;;;1.20;;
13580;SDS011;6861;46.170;7.222;2023-04-26T09:15:58;3.67;;;1.27;;
13580;SDS011;6861;46.170;7.222;2023-04-26T09:18:30;2.60;;;1.30;;
13580;SDS011;6861;46.170;7.222;2023-04-26T09:21:05;3.65;;;1.48;;
13580;SDS011;6861;46.170;7.222;2023-04-26T09:23:34;3.08;;;1.17;;
13580;SDS011;6861;46.170;7.222;2023-04-26T09:26:15;4.15;;;1.10;;
13580;SDS011;6861;46.170;7.222;2023-04-26T09:28:44;2.08;;;1.13;;
13580;SDS011;6861;46.170;7.222;2023-04-26T09:31:13;1.42;;;1.13;;
13580;SDS011;6861;46.170;7.222;2023-04-26T09:34:03;3.15;;;1.30;;
13580;SDS011;6861;46.170;7.222;2023-04-26T09:36:33;3.20;;;1.10;;
13580;SDS011;6861;46.170;7.222;2023-04-26T09:39:13;2.85;;;1.23;;
13580;SDS011;6861;46.170;7.222;2023-04-26T09:41:42;2.78;;;1.02;;
13580;SDS011;6861;46.170;7.222;2023-04-26T09:44:20;2.17;;;1.30;;
13580;SDS011;6861;46.170;7.222;2023-04-26T09:47:02;2.50;;;1.33;;
13580;SDS011;6861;46.170;7.222;2023-04-26T09:49:32;1.80;;;1.05;;
13580;SDS011;6861;46.170;7.222;2023-04-26T09:52:10;1.48;;;1.13;;
13580;SDS011;6861;46.170;7.222;2023-04-26T09:54:40;2.67;;;1.20;;
13580;SDS011;6861;46.170;7.222;2023-04-26T09:57:11;2.03;;;1.05;;
13580;SDS011;6861;46.170;7.222;2023-04-26T09:59:41;2.22;;;1.02;;
13580;SDS011;6861;46.170;7.222;2023-04-26T10:02:14;2.15;;;1.05;;
13580;SDS011;6861;46.170;7.222;2023-04-26T10:04:46;4.43;;;1.55;;
13580;SDS011;6861;46.170;7.222;2023-04-26T10:07:17;2.80;;;1.00;;
13580;SDS011;6861;46.170;7.222;2023-04-26T10:09:47;1.23;;;1.02;;
13580;SDS011;6861;46.170;7.222;2023-04-26T10:12:16;3.70;;;1.10;;
13580;SDS011;6861;46.170;7.222;2023-04-26T10:14:46;2.55;;;0.95;;
13580;SDS011;6861;46.170;7.222;2023-04-26T10:17:15;1.75;;;0.93;;
13580;SDS011;6861;46.170;7.222;2023-04-26T10:19:45;1.35;;;0.82;;
13580;SDS011;6861;46.170;7.222;2023-04-26T10:22:20;1.88;;;1.00;;
13580;SDS011;6861;46.170;7.222;2023-04-26T10:24:50;1.40;;;1.00;;
13580;SDS011;6861;46.170;7.222;2023-04-26T10:30:19;1.70;;;1.10;;
13580;SDS011;6861;46.170;7.222;2023-04-26T10:38:37;2.88;;;1.00;;
13580;SDS011;6861;46.170;7.222;2023-04-26T10:41:26;4.70;;;0.90;;
13580;SDS011;6861;46.170;7.222;2023-04-26T10:43:57;2.95;;;0.95;;
13580;SDS011;6861;46.170;7.222;2023-04-26T10:46:36;1.77;;;1.10;;
13580;SDS011;6861;46.170;7.222;2023-04-26T10:49:12;2.63;;;1.10;;
13580;SDS011;6861;46.170;7.222;2023-04-26T10:54:51;2.05;;;1.23;;
13580;SDS011;6861;46.170;7.222;2023-04-26T10:57:21;2.70;;;1.08;;
13580;SDS011;6861;46.170;7.222;2023-04-26T11:02:52;3.17;;;1.20;;
13580;SDS011;6861;46.170;7.222;2023-04-26T11:05:38;4.32;;;1.30;;
13580;SDS011;6861;46.170;7.222;2023-04-26T11:08:14;1.25;;;0.90;;
13580;SDS011;6861;46.170;7.222;2023-04-26T11:10:49;2.75;;;1.25;;
13580;SDS011;6861;46.170;7.222;2023-04-26T11:13:18;3.80;;;1.88;;
13580;SDS011;6861;46.170;7.222;2023-04-26T11:15:51;3.42;;;1.48;;
13580;SDS011;6861;46.170;7.222;2023-04-26T11:18:20;2.30;;;1.08;;
13580;SDS011;6861;46.170;7.222;2023-04-26T11:20:49;3.35;;;1.30;;
13580;SDS011;6861;46.170;7.222;2023-04-26T11:23:17;2.15;;;1.40;;
13580;SDS011;6861;46.170;7.222;2023-04-26T11:25:48;4.00;;;1.35;;
13580;SDS011;6861;46.170;7.222;2023-04-26T11:28:17;6.03;;;1.52;;
13580;SDS011;6861;46.170;7.222;2023-04-26T11:30:45;2.15;;;1.20;;
13580;SDS011;6861;46.170;7.222;2023-04-26T11:33:16;2.72;;;1.40;;
13580;SDS011;6861;46.170;7.222;2023-04-26T11:35:45;3.53;;;1.20;;
13580;SDS011;6861;46.170;7.222;2023-04-26T11:38:14;3.10;;;1.33;;
13580;SDS011;6861;46.170;7.222;2023-04-26T11:40:42;5.70;;;1.80;;
13580;SDS011;6861;46.170;7.222;2023-04-26T11:43:12;4.30;;;1.27;;
13580;SDS011;6861;46.170;7.222;2023-04-26T11:45:41;2.47;;;1.58;;
13580;SDS011;6861;46.170;7.222;2023-04-26T11:48:10;4.15;;;1.67;;
13580;SDS011;6861;46.170;7.222;2023-04-26T11:50:40;2.42;;;1.75;;
13580;SDS011;6861;46.170;7.222;2023-04-26T11:53:09;4.63;;;1.80;;
13580;SDS011;6861;46.170;7.222;2023-04-26T11:55:37;6.38;;;1.52;;
13580;SDS011;6861;46.170;7.222;2023-04-26T11:58:11;2.55;;;1.20;;
13580;SDS011;6861;46.170;7.222;2023-04-26T12:00:55;8.57;;;1.90;;
13580;SDS011;6861;46.170;7.222;2023-04-26T12:03:28;2.10;;;1.30;;
13580;SDS011;6861;46.170;7.222;2023-04-26T12:05:57;7.68;;;1.40;;
13580;SDS011;6861;46.170;7.222;2023-04-26T12:08:26;2.05;;;1.13;;
13580;SDS011;6861;46.170;7.222;2023-04-26T12:10:57;2.42;;;1.10;;
13580;SDS011;6861;46.170;7.222;2023-04-26T12:13:28;4.15;;;1.20;;
13580;SDS011;6861;46.170;7.222;2023-04-26T12:15:58;3.40;;;1.60;;
13580;SDS011;6861;46.170;7.222;2023-04-26T12:18:29;4.93;;;1.70;;
13580;SDS011;6861;46.170;7.222;2023-04-26T12:20:58;2.63;;;1.10;;
13580;SDS011;6861;46.170;7.222;2023-04-26T12:23:34;13.18;;;2.50;;
13580;SDS011;6861;46.170;7.222;2023-04-26T12:26:04;8.07;;;1.60;;
13580;SDS011;6861;46.170;7.222;2023-04-26T12:28:37;4.50;;;1.20;;
13580;SDS011;6861;46.170;7.222;2023-04-26T12:31:06;3.05;;;1.40;;
13580;SDS011;6861;46.170;7.222;2023-04-26T12:33:35;7.85;;;1.70;;
13580;SDS011;6861;46.170;7.222;2023-04-26T12:36:07;6.53;;;1.50;;
13580;SDS011;6861;46.170;7.222;2023-04-26T12:38:36;6.43;;;1.58;;
13580;SDS011;6861;46.170;7.222;2023-04-26T12:41:06;2.80;;;1.20;;
13580;SDS011;6861;46.170;7.222;2023-04-26T12:43:34;2.00;;;1.15;;
13580;SDS011;6861;46.170;7.222;2023-04-26T12:46:04;2.42;;;1.20;;
13580;SDS011;6861;46.170;7.222;2023-04-26T12:48:32;3.53;;;1.13;;
13580;SDS011;6861;46.170;7.222;2023-04-26T12:51:00;3.17;;;1.50;;
13580;SDS011;6861;46.170;7.222;2023-04-26T12:53:28;3.83;;;1.55;;
13580;SDS011;6861;46.170;7.222;2023-04-26T12:55:57;2.83;;;1.30;;
13580;SDS011;6861;46.170;7.222;2023-04-26T12:58:25;4.38;;;2.20;;
13580;SDS011;6861;46.170;7.222;2023-04-26T13:00:54;4.63;;;2.00;;
13580;SDS011;6861;46.170;7.222;2023-04-26T13:03:24;8.57;;;1.75;;
13580;SDS011;6861;46.170;7.222;2023-04-26T13:05:52;3.10;;;1.40;;
13580;SDS011;6861;46.170;7.222;2023-04-26T13:08:21;6.15;;;1.50;;
13580;SDS011;6861;46.170;7.222;2023-04-26T13:10:49;3.90;;;1.05;;
13580;SDS011;6861;46.170;7.222;2023-04-26T13:13:18;4.32;;;1.40;;
13580;SDS011;6861;46.170;7.222;2023-04-26T13:15:57;3.45;;;1.30;;
13580;SDS011;6861;46.170;7.222;2023-04-26T13:18:27;6.03;;;1.70;;
13580;SDS011;6861;46.170;7.222;2023-04-26T13:20:55;4.80;;;1.15;;
13580;SDS011;6861;46.170;7.222;2023-04-26T13:23:24;2.92;;;0.98;;
13580;SDS011;6861;46.170;7.222;2023-04-26T13:25:52;4.50;;;1.42;;
13580;SDS011;6861;46.170;7.222;2023-04-26T13:28:20;9.27;;;1.40;;
13580;SDS011;6861;46.170;7.222;2023-04-26T13:30:48;6.15;;;1.60;;
13580;SDS011;6861;46.170;7.222;2023-04-26T13:33:17;6.30;;;1.10;;
13580;SDS011;6861;46.170;7.222;2023-04-26T13:35:48;4.18;;;1.38;;
13580;SDS011;6861;46.170;7.222;2023-04-26T13:38:16;6.88;;;1.40;;
13580;SDS011;6861;46.170;7.222;2023-04-26T13:40:44;5.55;;;1.40;;
13580;SDS011;6861;46.170;7.222;2023-04-26T13:43:13;5.43;;;1.48;;
13580;SDS011;6861;46.170;7.222;2023-04-26T13:45:41;4.35;;;1.02;;
13580;SDS011;6861;46.170;7.222;2023-04-26T13:48:09;3.78;;;1.20;;
13580;SDS011;6861;46.170;7.222;2023-04-26T13:50:37;2.40;;;1.02;;
13580;SDS011;6861;46.170;7.222;2023-04-26T13:53:07;3.58;;;1.25;;
13580;SDS011;6861;46.170;7.222;2023-04-26T13:55:35;4.45;;;1.30;;
13580;SDS011;6861;46.170;7.222;2023-04-26T13:58:03;4.30;;;1.20;;
13580;SDS011;6861;46.170;7.222;2023-04-26T14:00:31;3.97;;;1.17;;
13580;SDS011;6861;46.170;7.222;2023-04-26T14:03:00;3.85;;;1.17;;
13580;SDS011;6861;46.170;7.222;2023-04-26T14:05:29;5.13;;;1.20;;
13580;SDS011;6861;46.170;7.222;2023-04-26T14:07:57;5.22;;;1.55;;
13580;SDS011;6861;46.170;7.222;2023-04-26T14:10:27;4.63;;;1.23;;
13580;SDS011;6861;46.170;7.222;2023-04-26T14:12:56;3.83;;;1.23;;
13580;SDS011;6861;46.170;7.222;2023-04-26T14:15:24;5.60;;;1.30;;
13580;SDS011;6861;46.170;7.222;2023-04-26T14:17:52;4.78;;;1.30;;
13580;SDS011;6861;46.170;7.222;2023-04-26T14:20:20;6.05;;;1.33;;
13580;SDS011;6861;46.170;7.222;2023-04-26T14:22:48;4.07;;;1.50;;
13580;SDS011;6861;46.170;7.222;2023-04-26T14:25:17;2.97;;;1.20;;
13580;SDS011;6861;46.170;7.222;2023-04-26T14:27:46;6.97;;;1.80;;
13580;SDS011;6861;46.170;7.222;2023-04-26T14:30:16;2.95;;;1.10;;
13580;SDS011;6861;46.170;7.222;2023-04-26T14:32:44;1.77;;;0.98;;
13580;SDS011;6861;46.170;7.222;2023-04-26T14:35:12;3.67;;;1.10;;
13580;SDS011;6861;46.170;7.222;2023-04-26T14:37:41;2.72;;;1.00;;
13580;SDS011;6861;46.170;7.222;2023-04-26T14:40:09;3.45;;;1.30;;
13580;SDS011;6861;46.170;7.222;2023-04-26T14:42:39;4.75;;;1.17;;
13580;SDS011;6861;46.170;7.222;2023-04-26T14:45:13;4.10;;;1.50;;
13580;SDS011;6861;46.170;7.222;2023-04-26T14:47:41;3.05;;;0.93;;
13580;SDS011;6861;46.170;7.222;2023-04-26T14:50:09;3.58;;;1.00;;
13580;SDS011;6861;46.170;7.222;2023-04-26T14:52:39;4.88;;;1.33;;
13580;SDS011;6861;46.170;7.222;2023-04-26T14:55:07;1.88;;;1.10;;
13580;SDS011;6861;46.170;7.222;2023-04-26T14:57:36;6.18;;;1.35;;
13580;SDS011;6861;46.170;7.222;2023-04-26T15:00:07;3.67;;;1.20;;
13580;SDS011;6861;46.170;7.222;2023-04-26T15:02:41;3.45;;;1.00;;
13580;SDS011;6861;46.170;7.222;2023-04-26T15:05:10;2.88;;;1.17;;
13580;SDS011;6861;46.170;7.222;2023-04-26T15:07:39;2.75;;;1.00;;
13580;SDS011;6861;46.170;7.222;2023-04-26T15:10:07;3.20;;;1.10;;
13580;SDS011;6861;46.170;7.222;2023-04-26T15:12:36;7.50;;;1.10;;
13580;SDS011;6861;46.170;7.222;2023-04-26T15:15:05;3.88;;;1.20;;
13580;SDS011;6861;46.170;7.222;2023-04-26T15:17:34;1.33;;;1.02;;
13580;SDS011;6861;46.170;7.222;2023-04-26T15:20:04;3.40;;;1.40;;
13580;SDS011;6861;46.170;7.222;2023-04-26T15:22:34;6.88;;;1.40;;
13580;SDS011;6861;46.170;7.222;2023-04-26T15:25:04;2.22;;;1.23;;
13580;SDS011;6861;46.170;7.222;2023-04-26T15:27:34;1.73;;;1.00;;